Aérodrome :
LOGIN :

S'inscrire | Disclaimer

   EN    FR    IT 

 










Légende :    VFR   VFR Marginal   IFR   IFR Intensif   IFR Très Intensif
Visi : 
Plafond : 
>= 8 km
>= 3000ft
5 à 8 km
1000 à 3000 ft
1500m à 5 km
500 à 1000 ft
800 à 1500m
200 à 500 ft
< 800m
< 200 ft
Symboles :   Orages  Brouillard  Fortes neiges  Fortes précipitations  Vent > 20 kt
SIGMETs :   Divers  Orages  Givrage  Turbulence  Onde Orograph.  Cendres Volcan.






- Altitude de l'aérodrome : 32 ft
- Code IATA : NRK


ESSP - Norrköping

DERNIER METAR :
  • 180420Z AUTO 00000KT 0300 R09/0900D R27/P1500N FEW001/// SCT025/// BKN043/// 10/10 Q1009

METARs EXPIRÉS :
  • 180350Z AUTO 06001KT 6000 FEW013/// SCT017/// OVC021/// 10/10 Q1009
  • 180320Z AUTO 00000KT 1700 FEW001/// BKN019/// OVC024/// 10/10 Q1009
  • 180250Z AUTO 00000KT 0700 R09/P1500N R27/P1500N FG OVC001/// 10/10 Q1009
  • 180220Z AUTO 00000KT 0500 R09/1300N R27/P1500N FG OVC001/// 10/10 Q1009
  • 180150Z AUTO 11002KT 0450 R09/1300N R27/1200N FG OVC001/// 10/10 Q1009

TAF TAF ESSP
Valide du 18 à 05h jusqu'au 18 à 12h UTC


180430Z 1805/1812 VRB02KT 0300 BCFG SCT025
PROB40 1805/1807 6000 BKN003
BECMG 1807/1809 9999 NSW



MET'MAP, la Météo Aéronautique d'un coup d'oeil ! - Copyright ORBIFLY Décembre 2007 - Disclaimer

ORBIFLY MET'MAP TEAM :

Programmation & Développement : Alexandra Zaïnal
Conception & Développement : Baudouin d'Aumeries
Co-Programmation & Développement : Marc-Olivier Méhu
Soutien technique & logistique : Manuel Goepfert

Contact : metmap@orbifly.com




SOURCES & CREDITS :

   NOAA